Latest Weather Observations for Ernabella/Pukatja

IDD60801

Issued at 4:31 pm CST Monday 29 August 2016 (issued every 30 minutes, with the page automatically refreshed every 10 minutes)

About weather observations | Map of weather stations | Latest weather observations for NT | Other Formats
Station Details ID: 016097 Name: PUKATJA Lat: -26.26 Lon: 132.18 Height: 703.2 m
Data from the previous 72 hours. | See also: Recent months at Ernabella/Pukatja
Date/Time
CST
Temp
°C
App
Temp
°C
Dew
Point
°C
Rel
Hum
%
Delta-T
°C
Wind Press
QNH
hPa
Press
MSL
hPa
Rain since
9am
mm
Dir  Spd
km/h
Gust
km/h
Spd
kts
Gust
kts
29/04:30pm 12.9 12.1 12.9 100 0.0 E 9 11 5 6 1011.9 - 13.4
29/04:00pm 12.9 12.6 12.7 99 0.1 NE 6 7 3 4 1012.0 - 12.4
29/03:30pm 12.8 12.5 12.6 99 0.1 NE 6 7 3 4 1012.1 - 11.8
29/03:00pm 12.7 13.1 12.4 98 0.2 W 2 7 1 4 1012.2 1011.1 11.6
29/02:30pm 12.5 11.9 12.3 99 0.1 SW 7 9 4 5 1012.1 - 10.0
29/02:00pm 12.4 10.6 12.1 98 0.2 W 13 15 7 8 1012.6 - 9.4
29/01:30pm 12.3 10.5 12.0 98 0.2 SW 13 19 7 10 1012.2 - 9.4
29/01:00pm 11.9 9.6 11.6 98 0.2 WSW 15 20 8 11 1012.9 - 9.0
29/12:30pm 11.7 10.1 11.5 99 0.1 W 11 15 6 8 1013.0 - 8.6
29/12:00pm 11.4 8.5 11.1 98 0.2 WSW 17 20 9 11 1013.5 1012.4 7.6
29/11:30am 11.0 7.1 10.8 99 0.1 WSW 22 30 12 16 1013.5 - 7.0
29/11:00am 11.0 6.3 10.8 99 0.1 WSW 26 35 14 19 1014.0 - 6.6
29/10:30am 11.1 4.8 10.9 99 0.1 SW 35 48 19 26 1014.3 - 5.8
29/10:00am 12.1 6.6 11.9 99 0.1 SW 32 39 17 21 1013.8 - 4.4
29/09:30am 13.2 10.4 13.2 100 0.0 WSW 20 26 11 14 1014.2 - 2.6
29/09:00am 13.4 9.4 13.1 98 0.2 SW 26 33 14 18 1013.5 1012.4 8.0
29/08:30am 15.5 14.4 15.2 98 0.2 NW 15 22 8 12 1013.1 - 7.0
29/08:00am 15.2 14.0 15.0 99 0.1 NNW 15 22 8 12 1012.7 - 6.2
29/07:30am 15.1 14.2 14.8 98 0.2 NNW 13 19 7 10 1012.1 - 5.8
29/07:00am 15.4 15.4 15.1 98 0.2 N 9 13 5 7 1011.7 - 5.2
29/06:30am 15.6 15.7 14.0 90 0.9 NW 6 7 3 4 1011.5 - 5.0
29/06:00am 16.1 15.5 13.6 85 1.5 N 9 17 5 9 1011.6 1010.4 4.8
29/05:30am 16.0 16.0 14.2 89 1.1 ENE 7 9 4 5 1011.5 - 4.8
29/05:00am 16.3 15.9 14.1 87 1.3 N 9 15 5 8 1011.0 - 4.8
29/04:30am 15.3 16.2 15.0 98 0.2 E 4 9 2 5 1010.5 - 4.8
29/04:00am 15.8 16.4 14.3 91 0.9 WNW 4 9 2 5 1011.3 - 4.4
29/03:30am 16.1 15.6 13.9 87 1.3 NNW 9 17 5 9 1011.2 - 4.4
29/03:00am 16.1 14.2 14.3 89 1.1 NNW 17 28 9 15 1011.4 1010.2 4.4
29/02:30am 15.2 15.1 14.9 98 0.2 N 9 13 5 7 1011.8 - 4.2
29/02:00am 15.0 14.4 14.7 98 0.2 N 11 15 6 8 1012.0 - 3.8
29/01:30am 14.8 13.9 13.8 94 0.6 NNE 11 17 6 9 1012.7 - 2.4
29/01:00am 15.4 14.3 13.1 86 1.3 NW 11 19 6 10 1013.2 - 1.8
29/12:30am 16.3 13.9 12.7 79 2.1 NW 17 26 9 14 1013.1 - 0.8
29/12:00am 16.9 12.5 11.8 72 2.9 NNW 26 37 14 20 1013.1 1012.0 0.4
 
Date/Time
CST
Temp
°C
App
Temp
°C
Dew
Point
°C
Rel
Hum
%
Delta-T
°C
Wind Press
QNH
hPa
Press
MSL
hPa
Rain since
9am
mm
Dir  Spd
km/h
Gust
km/h
Spd
kts
Gust
kts
28/11:30pm 20.3 14.7 8.9 48 6.2 NNW 28 48 15 26 1012.9 - 0.0
28/11:05pm 21.8 15.7 6.5 37 8.1 NNW 28 52 15 28 1012.5 - 0.0
28/11:00pm 22.1 16.1 5.5 34 8.6 NNW 26 39 14 21 1012.3 - 0.0
28/10:45pm 22.3 15.1 4.8 32 9.0 NNW 32 44 17 24 1012.1 - 0.0
28/10:30pm 20.6 17.3 4.6 35 8.1 N 11 19 6 10 1012.2 - 0.0
28/10:00pm 21.0 17.3 4.6 34 8.3 N 13 19 7 10 1012.5 - 0.0
28/09:30pm 20.6 17.2 4.2 34 8.2 NNW 11 17 6 9 1012.6 - 0.0
28/09:00pm 20.7 17.3 3.9 33 8.4 NNW 11 17 6 9 1012.3 1011.2 0.0
28/08:30pm 20.6 16.9 4.2 34 8.2 N 13 20 7 11 1012.3 - 0.0
28/08:00pm 20.5 17.5 4.1 34 8.2 N 9 13 5 7 1012.2 - 0.0
28/07:30pm 20.2 17.3 4.7 36 7.8 NW 9 17 5 9 1011.9 - 0.0
28/07:00pm 20.4 17.5 4.8 36 7.9 N 9 15 5 8 1011.9 - 0.0
28/06:30pm 20.4 17.2 5.2 37 7.7 N 11 15 6 8 1012.0 - 0.0
28/06:00pm 21.7 17.3 2.9 29 9.3 NNW 15 24 8 13 1011.6 1010.4 0.0
28/05:30pm 22.3 16.9 2.4 27 9.7 NW 20 33 11 18 1011.9 - 0.0
28/05:00pm 22.5 16.8 2.6 27 9.8 NW 22 32 12 17 1011.8 - 0.0
28/04:30pm 23.0 16.4 1.9 25 10.3 NNW 26 39 14 21 1011.3 - 0.0
28/04:00pm 24.2 18.3 1.8 23 11.0 NNW 22 37 12 20 1011.1 - 0.0
28/03:30pm 23.1 16.0 1.4 24 10.5 NNW 28 39 15 21 1011.5 - 0.0
28/03:00pm 24.2 17.6 1.8 23 11.0 N 26 43 14 23 1011.6 1010.4 0.0
28/02:30pm 21.7 14.5 0.8 25 9.9 NNW 28 41 15 22 1012.1 - 0.0
28/02:00pm 22.0 17.0 1.6 26 9.8 NNW 17 26 9 14 1012.9 - 0.0
28/01:30pm 20.1 14.7 1.5 29 8.8 NNW 19 28 10 15 1013.6 - 0.0
28/01:00pm 19.9 14.3 0.9 28 8.9 NNW 20 32 11 17 1014.3 - 0.0
28/12:30pm 20.0 14.6 1.0 28 8.9 NNW 19 32 10 17 1014.6 - 0.0
28/12:00pm 19.4 14.2 0.4 28 8.7 NNW 17 28 9 15 1015.3 1014.2 0.0
28/11:30am 18.5 13.3 0.2 29 8.3 NNW 17 24 9 13 1016.0 - 0.0
28/11:00am 17.8 12.6 0.0 30 8.0 NNW 17 24 9 13 1016.2 - 0.0
28/10:30am 17.3 13.6 0.0 31 7.8 NNW 9 17 5 9 1016.6 - 0.0
28/10:00am 16.3 12.2 0.0 33 7.3 N 11 15 6 8 1016.7 - 0.0
28/09:30am 15.6 11.1 -0.2 34 7.0 N 13 19 7 10 1017.0 - 0.0
28/09:00am 15.7 11.2 -0.1 34 7.0 N 13 17 7 9 1016.8 1015.8 0.0
28/08:30am 15.2 10.7 -0.1 35 6.7 NNE 13 19 7 10 1016.6 - 0.0
28/08:00am 15.5 11.8 -0.3 34 6.9 NE 9 13 5 7 1016.2 - 0.0
28/07:30am 12.0 9.4 0.8 46 4.9 E 4 6 2 3 1016.2 - 0.0
28/07:00am 12.3 8.1 -0.6 41 5.5 NNE 11 13 6 7 1015.8 - 0.0
28/06:30am 11.8 7.6 -0.7 42 5.3 NE 11 13 6 7 1015.3 - 0.0
28/06:00am 11.6 7.5 -0.5 43 5.1 E 11 11 6 6 1015.1 1014.0 0.0
28/05:30am 11.8 8.0 -0.4 43 5.2 E 9 11 5 6 1015.1 - 0.0
28/05:00am 12.0 8.5 -1.2 40 5.5 E 7 9 4 5 1014.8 - 0.0
28/04:30am 12.1 7.9 -1.1 40 5.5 E 11 17 6 9 1014.6 - 0.0
28/04:00am 12.4 7.4 -1.1 39 5.7 E 15 20 8 11 1014.6 - 0.0
28/03:30am 12.9 7.5 -1.1 38 5.9 ESE 17 24 9 13 1014.7 - 0.0
28/03:00am 13.5 9.2 -1.3 36 6.2 E 11 20 6 11 1014.8 1013.7 0.0
28/02:30am 14.8 9.4 -1.7 32 7.0 NNW 17 20 9 11 1015.0 - 0.0
28/02:00am 15.3 10.2 -1.7 31 7.2 N 15 22 8 12 1015.3 - 0.0
28/01:30am 16.5 9.7 -2.0 28 7.9 N 24 39 13 21 1015.5 - 0.0
28/01:00am 17.1 10.3 -2.0 27 8.2 N 24 33 13 18 1015.3 - 0.0
28/12:30am 17.7 11.2 -2.6 25 8.7 N 22 33 12 18 1015.7 - 0.0
28/12:00am 17.3 10.5 -1.9 27 8.3 N 24 33 13 18 1016.0 1014.9 0.0
 
Date/Time
CST
Temp
°C
App
Temp
°C
Dew
Point
°C
Rel
Hum
%
Delta-T
°C
Wind Press
QNH
hPa
Press
MSL
hPa
Rain since
9am
mm
Dir  Spd
km/h
Gust
km/h
Spd
kts
Gust
kts
27/11:30pm 18.3 10.3 -2.0 25 8.8 N 30 39 16 21 1016.3 - 0.0
27/11:00pm 17.7 12.3 -1.0 28 8.3 N 17 30 9 16 1016.6 - 0.0
27/10:30pm 16.5 12.3 -1.1 30 7.7 NE 11 15 6 8 1016.7 - 0.0
27/10:00pm 16.5 13.1 -0.7 31 7.6 SSE 7 13 4 7 1017.0 - 0.0
27/09:30pm 16.4 11.8 -0.8 31 7.5 NNE 13 24 7 13 1016.8 - 0.0
27/09:00pm 13.4 10.5 1.4 44 5.4 NNE 6 7 3 4 1017.2 1016.1 0.0
27/08:30pm 13.6 10.4 0.9 42 5.6 N 7 15 4 8 1017.5 - 0.0
27/08:00pm 16.0 11.9 -0.2 33 7.2 N 11 13 6 7 1017.6 - 0.0
27/07:30pm 16.0 12.3 -0.2 33 7.2 N 9 11 5 6 1017.7 - 0.0
27/07:00pm 16.9 12.8 0.1 32 7.5 N 11 15 6 8 1017.3 - 0.0
27/06:30pm 18.8 15.1 -0.1 28 8.6 NNW 9 11 5 6 1017.1 - 0.0
27/06:00pm 20.7 15.8 -0.6 24 9.7 N 15 22 8 12 1017.0 1015.9 0.0
27/05:30pm 21.7 16.4 -0.9 22 10.3 N 17 26 9 14 1016.7 - 0.0
27/05:00pm 22.1 16.3 -1.2 21 10.6 N 19 30 10 16 1016.6 - 0.0
27/04:30pm 22.3 16.0 -1.1 21 10.7 NNW 22 32 12 17 1016.8 - 0.0
27/04:00pm 22.0 16.0 -1.3 21 10.6 NNW 20 30 11 16 1017.2 - 0.0
27/03:30pm 22.2 16.5 -0.5 22 10.5 N 19 32 10 17 1017.3 - 0.0
27/03:00pm 21.8 16.2 -0.2 23 10.2 N 19 30 10 16 1017.8 1016.7 0.0
27/02:30pm 21.0 15.2 0.2 25 9.7 NNW 20 28 11 15 1018.1 - 0.0
27/02:00pm 21.5 16.3 0.1 24 10.0 NNW 17 24 9 13 1018.5 - 0.0
27/01:30pm 20.3 14.7 0.2 26 9.3 NNW 19 28 10 15 1019.0 - 0.0
27/01:00pm 19.7 13.6 0.2 27 9.0 NNW 22 32 12 17 1019.6 - 0.0
27/12:30pm 19.0 12.5 0.1 28 8.6 N 24 35 13 19 1020.1 - 0.0
27/12:00pm 18.6 12.2 0.7 30 8.2 N 24 33 13 18 1020.5 1019.5 0.0
27/11:30am 17.2 11.7 0.8 33 7.5 N 19 30 10 16 1021.3 - 0.0
27/11:00am 16.6 11.1 0.7 34 7.2 N 19 32 10 17 1021.8 - 0.0
27/10:30am 14.9 8.7 0.0 36 6.6 NNE 22 30 12 16 1021.9 - 0.0
27/10:00am 13.9 7.8 0.2 39 6.0 NNE 22 30 12 16 1022.1 - 0.0
27/09:30am 12.4 5.9 0.2 43 5.3 NNE 24 32 13 17 1022.2 - 0.0
27/09:00am 11.8 6.3 0.3 45 4.9 NNE 19 26 10 14 1022.2 1021.2 0.0
27/08:30am 11.0 5.8 0.4 48 4.5 N 17 22 9 12 1021.9 - 0.0
27/08:00am 9.9 5.6 1.0 54 3.8 N 13 19 7 10 1021.4 - 0.0
27/07:30am 8.1 4.6 1.3 62 2.9 N 9 15 5 8 1021.3 - 0.0
27/07:00am 6.6 3.6 0.9 67 2.4 N 6 9 3 5 1021.4 - 0.0
27/06:30am 7.6 3.7 1.0 63 2.8 N 11 20 6 11 1021.1 - 0.0
27/06:00am 8.1 3.1 1.3 62 2.9 NNE 17 26 9 14 1020.7 1019.7 0.0
27/05:30am 8.3 3.0 1.7 63 2.8 NNE 19 28 10 15 1020.7 - 0.0
27/05:00am 8.4 3.5 2.2 65 2.7 NNE 17 22 9 12 1020.7 - 0.0
27/04:30am 6.8 3.4 1.7 70 2.2 ENE 9 13 5 7 1020.7 - 0.0
27/04:00am 7.0 4.1 1.7 69 2.2 ESE 6 7 3 4 1021.0 - 0.0
27/03:30am 6.8 3.9 1.3 68 2.3 S 6 9 3 5 1021.1 - 0.0
27/03:00am 5.8 2.3 1.5 74 1.8 E 9 13 5 7 1021.3 1020.3 0.0
27/02:30am 7.1 3.9 1.0 65 2.5 NNE 7 11 4 6 1021.3 - 0.0
27/02:00am 8.3 4.8 1.0 60 3.1 N 9 13 5 7 1021.9 - 0.0
27/01:30am 8.4 5.3 1.3 61 3.0 W 7 11 4 6 1022.2 - 0.0
27/01:00am 7.0 4.2 2.1 71 2.1 NNE 6 9 3 5 1022.2 - 0.0
27/12:30am 7.3 3.5 1.8 68 2.3 NE 11 13 6 7 1022.2 - 0.0
27/12:00am 8.3 5.2 1.5 62 2.9 ENE 7 9 4 5 1022.4 1021.4 0.0
 
Date/Time
CST
Temp
°C
App
Temp
°C
Dew
Point
°C
Rel
Hum
%
Delta-T
°C
Wind Press
QNH
hPa
Press
MSL
hPa
Rain since
9am
mm
Dir  Spd
km/h
Gust
km/h
Spd
kts
Gust
kts
26/11:30pm 8.8 5.3 1.5 60 3.1 E 9 11 5 6 1022.6 - 0.0
26/11:00pm 8.3 4.9 1.7 63 2.8 E 9 11 5 6 1022.6 - 0.0
26/10:30pm 8.5 4.3 1.9 63 2.9 E 13 15 7 8 1022.8 - 0.0
26/10:00pm 8.4 4.6 1.8 63 2.8 E 11 13 6 7 1022.5 - 0.0
26/09:30pm 8.5 4.7 1.9 63 2.9 E 11 13 6 7 1022.7 - 0.0
26/09:00pm 8.3 4.9 1.9 64 2.8 ENE 9 11 5 6 1022.6 1021.6 0.0
26/08:30pm 9.3 5.5 1.7 59 3.3 E 11 11 6 6 1022.5 - 0.0
26/08:00pm 9.5 5.8 2.1 60 3.2 E 11 11 6 6 1022.2 - 0.0
26/07:30pm 10.7 6.8 1.3 52 4.1 E 11 11 6 6 1022.0 - 0.0
26/07:00pm 11.2 7.4 1.5 51 4.3 E 11 13 6 7 1021.6 - 0.0
26/06:30pm 13.6 8.8 0.3 40 5.8 E 15 19 8 10 1021.3 - 0.0
26/06:00pm 15.0 10.2 0.1 36 6.5 E 15 24 8 13 1021.1 1020.1 0.0
26/05:30pm 15.9 11.1 0.1 34 7.0 ENE 15 20 8 11 1021.3 - 0.0
26/05:00pm 15.8 10.9 -0.8 32 7.2 E 15 26 8 14 1021.2 - 0.0

Other Formats:

Comma delimited format used in spreadsheet applications
http://www.bom.gov.au/fwo/IDD60801/IDD60801.94474.axf

JavaScript Object Notation format (JSON) in row-major order
http://www.bom.gov.au/fwo/IDD60801/IDD60801.94474.json